Time;durP1;ratioP1;P1;durP2;ratioP2;P2;SDS_P1;SDS_P2;PMS_P1;PMS_P2;Temp;Humidity;BMP_temperature;BMP_pressure;BME280_temperature;BME280_humidity;BME280_pressure;Samples;Min_cycle;Max_cycle;Signal;HPM_P1;HPM_P2
2021/08/28 00:00:38;;;;;;;7.00;5.40;;;14.00;99.90;;;;;;4993720;28;20965;-53
2021/08/28 00:03:08;;;;;;;8.77;5.33;;;14.10;99.90;;;;;;4995115;28;20504;-53
2021/08/28 00:05:35;;;;;;;7.93;5.87;;;13.90;99.90;;;;;;4994249;28;20451;-53
2021/08/28 00:08:03;;;;;;;6.63;5.73;;;13.60;99.90;;;;;;4995207;28;20473;-54
2021/08/28 00:10:30;;;;;;;9.40;5.50;;;13.60;99.90;;;;;;4994704;28;21003;-53
2021/08/28 00:12:57;;;;;;;6.10;5.47;;;13.80;99.90;;;;;;4994415;28;20489;-55
2021/08/28 00:15:24;;;;;;;6.40;5.70;;;13.80;99.90;;;;;;4994226;28;21010;-53
2021/08/28 00:17:51;;;;;;;6.87;5.10;;;13.80;99.90;;;;;;4994824;28;20888;-55
2021/08/28 00:20:19;;;;;;;5.87;5.27;;;14.00;99.90;;;;;;4994871;28;20498;-53
2021/08/28 00:22:46;;;;;;;6.87;5.40;;;14.00;99.90;;;;;;4994658;28;20957;-55
2021/08/28 00:25:14;;;;;;;6.00;5.40;;;14.10;99.90;;;;;;4994605;28;20450;-53
2021/08/28 00:27:42;;;;;;;7.73;5.50;;;14.20;99.90;;;;;;4993919;28;20470;-54
2021/08/28 00:30:11;;;;;;;7.83;4.70;;;14.10;99.90;;;;;;4994665;28;20532;-53
2021/08/28 00:32:38;;;;;;;8.48;5.88;;;14.10;99.90;;;;;;4993709;28;20444;-53
2021/08/28 00:35:06;;;;;;;7.63;5.67;;;14.20;99.90;;;;;;4993811;28;20254;-54
2021/08/28 00:37:35;;;;;;;7.73;5.30;;;14.20;99.90;;;;;;4994679;28;20458;-54
2021/08/28 00:40:02;;;;;;;6.53;5.27;;;14.20;99.90;;;;;;4994740;28;20544;-54
2021/08/28 00:42:32;;;;;;;5.30;4.80;;;14.20;99.90;;;;;;4994673;28;20529;-54
2021/08/28 00:44:59;;;;;;;5.53;4.60;;;14.30;99.90;;;;;;4994249;28;20972;-55
2021/08/28 00:47:27;;;;;;;5.03;4.53;;;14.20;99.90;;;;;;4975324;28;20483;-54
2021/08/28 00:49:54;;;;;;;6.20;5.23;;;14.20;99.90;;;;;;4988978;28;20475;-53
2021/08/28 00:52:21;;;;;;;7.90;5.00;;;14.30;99.90;;;;;;4994003;28;20450;-53
2021/08/28 00:54:50;;;;;;;5.60;5.00;;;14.40;99.90;;;;;;4994442;28;20540;-54
2021/08/28 00:57:20;;;;;;;5.17;4.67;;;14.20;99.90;;;;;;4994164;28;20454;-54
2021/08/28 00:59:47;;;;;;;5.40;4.20;;;14.20;99.90;;;;;;4993972;28;20474;-53
2021/08/28 01:02:14;;;;;;;6.50;4.23;;;14.30;99.90;;;;;;4993902;28;20522;-54
2021/08/28 01:04:50;;;;;;;5.90;4.93;;;14.10;99.90;;;;;;4993843;28;20451;-54
2021/08/28 01:07:20;;;;;;;7.57;4.47;;;14.00;99.90;;;;;;4994239;28;20462;-54
2021/08/28 01:09:55;;;;;;;5.50;4.90;;;14.00;99.90;;;;;;4994120;28;20486;-53
2021/08/28 01:12:25;;;;;;;7.30;5.57;;;14.10;99.90;;;;;;4993321;28;20968;-55
2021/08/28 01:15:00;;;;;;;6.53;5.40;;;14.10;99.90;;;;;;4993438;28;20911;-56
2021/08/28 01:17:33;;;;;;;6.10;4.90;;;14.10;99.90;;;;;;4992752;28;20512;-54
2021/08/28 01:26:55;;;;;;;5.60;5.00;;;14.20;99.90;;;;;;4991800;28;21069;-60
2021/08/28 01:29:29;;;;;;;7.97;4.70;;;14.10;99.90;;;;;;4993741;28;20459;-60
2021/08/28 01:31:57;;;;;;;4.87;4.40;;;14.20;99.90;;;;;;4993459;28;20466;-60
2021/08/28 01:34:26;;;;;;;5.30;4.80;;;14.20;99.90;;;;;;4989873;28;20888;-60
2021/08/28 01:36:54;;;;;;;5.47;4.97;;;14.10;99.90;;;;;;4982787;28;20455;-60
2021/08/28 01:39:21;;;;;;;6.57;5.00;;;14.10;99.90;;;;;;4993882;28;20489;-61
2021/08/28 01:41:51;;;;;;;4.47;4.07;;;14.10;99.90;;;;;;4976711;28;20542;-60
2021/08/28 01:44:18;;;;;;;6.83;4.90;;;14.00;99.90;;;;;;4973944;28;20451;-60
2021/08/28 01:46:48;;;;;;;7.93;4.90;;;14.10;99.90;;;;;;4981137;28;20509;-60
2021/08/28 01:49:16;;;;;;;5.90;4.90;;;14.10;99.90;;;;;;4993802;28;20454;-60
2021/08/28 01:51:44;;;;;;;9.17;7.13;;;14.00;99.90;;;;;;4993195;28;20509;-60
2021/08/28 01:54:12;;;;;;;5.40;4.90;;;14.00;99.90;;;;;;4991641;28;21065;-61
2021/08/28 01:56:39;;;;;;;5.73;5.03;;;14.00;99.90;;;;;;4977103;28;20506;-60
2021/08/28 01:59:06;;;;;;;5.60;5.10;;;14.10;99.90;;;;;;4993352;28;20810;-60
2021/08/28 02:01:33;;;;;;;5.50;5.00;;;14.00;99.90;;;;;;4993246;28;20471;-60
2021/08/28 02:04:02;;;;;;;5.43;4.77;;;13.90;99.90;;;;;;4973810;28;20447;-60
2021/08/28 02:06:40;;;;;;;6.07;5.47;;;13.90;99.90;;;;;;4977488;28;21010;-60
2021/08/28 02:09:15;;;;;;;5.80;5.20;;;14.00;99.90;;;;;;4987946;28;20879;-59
2021/08/28 02:11:47;;;;;;;8.70;5.30;;;14.00;99.90;;;;;;4973403;28;20475;-60
2021/08/28 02:14:19;;;;;;;7.50;5.53;;;14.10;99.90;;;;;;4973565;28;20487;-60
2021/08/28 02:16:46;;;;;;;6.47;5.13;;;14.10;99.90;;;;;;4980082;28;20450;-60
2021/08/28 02:19:20;;;;;;;6.20;5.50;;;14.10;99.90;;;;;;4979911;28;20455;-60
2021/08/28 02:21:52;;;;;;;7.93;5.70;;;14.10;99.90;;;;;;4972703;28;20531;-60
2021/08/28 02:24:23;;;;;;;6.90;5.87;;;14.10;99.90;;;;;;4972529;28;20444;-60
2021/08/28 02:26:56;;;;;;;6.70;5.87;;;14.00;99.90;;;;;;4973115;28;20471;-60
2021/08/28 02:29:30;;;;;;;7.10;5.60;;;13.90;99.90;;;;;;4972928;28;20460;-59
2021/08/28 02:31:59;;;;;;;6.13;5.53;;;13.90;99.90;;;;;;4972640;28;21051;-60
2021/08/28 02:34:32;;;;;;;7.00;5.27;;;14.00;99.90;;;;;;4972817;28;20526;-59
2021/08/28 02:37:00;;;;;;;7.00;5.60;;;14.00;99.90;;;;;;4976590;28;20451;-60
2021/08/28 02:39:28;;;;;;;8.97;5.17;;;14.00;99.90;;;;;;4972492;28;20460;-59
2021/08/28 02:41:57;;;;;;;6.43;5.40;;;13.90;99.90;;;;;;4972548;28;20880;-59
2021/08/28 02:44:26;;;;;;;6.57;5.47;;;13.80;99.90;;;;;;4972656;28;20451;-59
2021/08/28 02:46:54;;;;;;;9.73;5.93;;;13.90;99.90;;;;;;4974216;28;20979;-59
2021/08/28 02:49:23;;;;;;;6.13;5.20;;;13.90;99.90;;;;;;4972839;28;20451;-59
2021/08/28 02:51:52;;;;;;;7.00;5.60;;;13.90;99.90;;;;;;4972345;28;20525;-59
2021/08/28 02:54:21;;;;;;;7.80;6.27;;;13.80;99.90;;;;;;4972507;28;20534;-59
2021/08/28 02:56:51;;;;;;;8.37;6.20;;;14.00;99.90;;;;;;4972937;28;20988;-60
2021/08/28 02:59:19;;;;;;;7.50;6.50;;;14.10;99.90;;;;;;4972293;28;20443;-59
2021/08/28 03:01:46;;;;;;;7.27;5.97;;;13.90;99.90;;;;;;4971999;28;20494;-59
2021/08/28 03:04:18;;;;;;;6.87;5.87;;;13.80;99.90;;;;;;4976031;28;20929;-60
2021/08/28 03:06:47;;;;;;;9.13;6.00;;;13.90;99.90;;;;;;4975562;28;20454;-60
2021/08/28 03:09:17;;;;;;;7.63;6.43;;;14.10;99.90;;;;;;4972436;28;20986;-59
2021/08/28 03:11:45;;;;;;;8.73;5.20;;;13.90;99.90;;;;;;4972124;28;20459;-59
2021/08/28 03:14:12;;;;;;;7.50;5.57;;;13.90;99.90;;;;;;4968462;28;20479;-60
2021/08/28 03:16:42;;;;;;;7.07;5.70;;;14.00;99.90;;;;;;4971986;28;20938;-59
2021/08/28 03:19:11;;;;;;;8.30;6.23;;;13.90;99.90;;;;;;4971996;28;20455;-59
2021/08/28 03:21:40;;;;;;;7.97;5.80;;;14.00;99.90;;;;;;4970578;28;20525;-59
2021/08/28 03:24:08;;;;;;;9.97;5.70;;;13.90;99.90;;;;;;4971634;28;20960;-60
2021/08/28 03:26:36;;;;;;;7.83;5.90;;;13.90;99.90;;;;;;4973115;28;20949;-59
2021/08/28 03:29:04;;;;;;;9.77;7.47;;;13.90;99.90;;;;;;4972443;28;20451;-59
2021/08/28 03:31:32;;;;;;;6.40;5.73;;;14.00;99.90;;;;;;4971999;28;20471;-60
2021/08/28 03:34:01;;;;;;;7.10;6.07;;;13.90;99.90;;;;;;4971843;28;20545;-59
2021/08/28 03:36:28;;;;;;;7.60;5.97;;;14.00;99.90;;;;;;4975568;28;20874;-60
2021/08/28 03:38:55;;;;;;;7.33;6.00;;;14.00;99.90;;;;;;4976752;28;20820;-60
2021/08/28 03:41:22;;;;;;;10.40;7.27;;;14.00;99.90;;;;;;4975691;28;21062;-59
2021/08/28 03:43:51;;;;;;;7.23;6.03;;;14.00;99.90;;;;;;4975835;28;20469;-60
2021/08/28 03:46:18;;;;;;;9.47;6.80;;;13.90;99.90;;;;;;4979386;28;20455;-59
2021/08/28 03:48:45;;;;;;;8.80;6.40;;;13.90;99.90;;;;;;4975985;28;20455;-59
2021/08/28 03:51:12;;;;;;;8.53;6.50;;;14.00;99.90;;;;;;4975580;28;20525;-59
2021/08/28 03:53:39;;;;;;;9.03;6.97;;;14.00;99.90;;;;;;4975329;28;20513;-59
2021/08/28 03:56:07;;;;;;;9.43;6.93;;;14.00;99.90;;;;;;4977488;28;20451;-60
2021/08/28 03:58:34;;;;;;;13.20;7.53;;;14.00;99.90;;;;;;4975007;28;20949;-60
2021/08/28 04:01:03;;;;;;;10.27;7.03;;;14.00;99.90;;;;;;4975424;28;20471;-59
2021/08/28 04:03:30;;;;;;;8.63;7.20;;;14.00;99.90;;;;;;4975505;28;20487;-59
2021/08/28 04:05:57;;;;;;;10.37;7.70;;;13.90;99.90;;;;;;4975689;28;20454;-60
2021/08/28 04:08:23;;;;;;;8.43;7.00;;;14.00;99.90;;;;;;4975404;28;20459;-59
2021/08/28 04:10:51;;;;;;;7.80;6.20;;;14.00;99.90;;;;;;4975124;28;20467;-60
2021/08/28 04:13:18;;;;;;;8.37;6.80;;;14.10;99.90;;;;;;4975575;28;20443;-59
2021/08/28 04:15:45;;;;;;;7.93;6.47;;;14.10;99.90;;;;;;4977749;28;20483;-60
2021/08/28 04:18:13;;;;;;;10.00;6.90;;;13.90;99.90;;;;;;4975456;28;20451;-60
2021/08/28 04:20:40;;;;;;;9.10;6.73;;;13.90;99.90;;;;;;4974898;28;20520;-60
2021/08/28 04:23:07;;;;;;;9.70;6.13;;;14.00;99.90;;;;;;4975236;28;20514;-59
2021/08/28 04:25:34;;;;;;;9.13;6.00;;;14.00;99.90;;;;;;4978957;28;20452;-60
2021/08/28 04:28:01;;;;;;;8.30;6.00;;;14.00;99.90;;;;;;4974725;28;20514;-60
2021/08/28 04:30:28;;;;;;;12.07;6.90;;;14.00;99.90;;;;;;4974794;28;20979;-60
2021/08/28 04:32:55;;;;;;;13.70;6.67;;;14.10;99.90;;;;;;4974732;28;21014;-60
2021/08/28 04:35:23;;;;;;;8.23;6.90;;;14.00;99.90;;;;;;4974748;28;20482;-60
2021/08/28 04:37:50;;;;;;;9.37;6.33;;;13.90;99.90;;;;;;4974698;28;20463;-60
2021/08/28 04:40:18;;;;;;;11.33;6.73;;;13.90;99.90;;;;;;4974456;28;20455;-60
2021/08/28 04:42:45;;;;;;;10.20;7.00;;;13.90;99.90;;;;;;4975124;28;20801;-61
2021/08/28 04:45:12;;;;;;;8.43;6.60;;;13.90;99.90;;;;;;4974848;28;20868;-60
2021/08/28 04:47:39;;;;;;;8.80;6.87;;;13.90;99.90;;;;;;4973715;28;21003;-60
2021/08/28 04:50:07;;;;;;;9.83;6.83;;;13.90;99.90;;;;;;4974662;28;20464;-60
2021/08/28 04:52:35;;;;;;;10.20;7.77;;;13.60;99.90;;;;;;4980177;28;20968;-60
2021/08/28 04:55:05;;;;;;;10.27;7.10;;;13.60;99.90;;;;;;4974832;28;20532;-59
2021/08/28 04:57:32;;;;;;;8.67;7.00;;;13.50;99.90;;;;;;4974858;28;20455;-60
2021/08/28 05:00:00;;;;;;;10.93;7.90;;;13.60;99.90;;;;;;4974475;28;20991;-60
2021/08/28 05:02:27;;;;;;;10.17;7.03;;;13.60;99.90;;;;;;4974302;28;20486;-60
2021/08/28 05:04:55;;;;;;;9.50;7.70;;;13.60;99.90;;;;;;4974231;28;20949;-60
2021/08/28 05:07:21;;;;;;;12.90;8.13;;;13.70;99.90;;;;;;4974420;28;20458;-60
2021/08/28 05:09:50;;;;;;;13.63;8.20;;;13.70;99.90;;;;;;4974376;28;20459;-59
2021/08/28 05:12:17;;;;;;;11.07;8.07;;;13.70;99.90;;;;;;4975011;28;20463;-60
2021/08/28 05:14:44;;;;;;;9.60;7.80;;;13.60;99.90;;;;;;4973870;28;20510;-60
2021/08/28 05:17:11;;;;;;;10.17;8.03;;;13.70;99.90;;;;;;4974083;28;20878;-59
2021/08/28 05:19:37;;;;;;;10.70;8.40;;;13.60;99.90;;;;;;4973069;28;20514;-60
2021/08/28 05:22:04;;;;;;;13.67;8.83;;;13.60;99.90;;;;;;4975166;28;21315;-60
2021/08/28 05:24:34;;;;;;;11.57;8.40;;;13.60;99.90;;;;;;4974212;28;20506;-60
2021/08/28 05:27:03;;;;;;;10.80;7.97;;;13.60;99.90;;;;;;4974085;28;20459;-59
2021/08/28 05:29:31;;;;;;;10.70;8.40;;;13.60;99.90;;;;;;4973796;28;20455;-60
2021/08/28 05:31:58;;;;;;;10.83;8.40;;;13.70;99.90;;;;;;4974849;28;20476;-61
2021/08/28 05:34:25;;;;;;;16.33;9.07;;;13.70;99.90;;;;;;4973629;28;20961;-60
2021/08/28 05:36:51;;;;;;;10.83;8.40;;;13.80;99.90;;;;;;4973925;28;20451;-59
2021/08/28 05:39:18;;;;;;;12.50;9.23;;;13.70;99.90;;;;;;4973616;28;20879;-60
2021/08/28 05:41:45;;;;;;;10.63;8.40;;;13.80;99.90;;;;;;4973556;28;20876;-60
2021/08/28 05:44:14;;;;;;;11.00;7.63;;;13.90;99.90;;;;;;4973453;28;20452;-60
2021/08/28 05:46:41;;;;;;;11.73;8.20;;;13.90;99.90;;;;;;4973798;28;20456;-60
2021/08/28 05:49:08;;;;;;;8.87;7.73;;;13.80;99.90;;;;;;4973235;28;20491;-61
2021/08/28 05:51:35;;;;;;;9.50;7.83;;;13.80;99.90;;;;;;4972791;28;20534;-60
2021/08/28 05:54:02;;;;;;;8.43;7.00;;;13.90;99.90;;;;;;4975745;28;20526;-60
2021/08/28 05:56:28;;;;;;;10.43;8.03;;;14.00;99.90;;;;;;4973283;28;20895;-60
2021/08/28 05:58:55;;;;;;;10.63;8.10;;;13.90;99.90;;;;;;4973444;28;20522;-60
2021/08/28 06:01:24;;;;;;;9.97;7.80;;;13.90;99.90;;;;;;4973410;28;20467;-60
2021/08/28 06:03:51;;;;;;;10.30;7.80;;;13.70;99.90;;;;;;4973942;28;20483;-60
2021/08/28 06:06:18;;;;;;;13.87;7.77;;;13.80;99.90;;;;;;4972931;28;20444;-60
2021/08/28 06:08:45;;;;;;;10.67;8.07;;;13.80;99.90;;;;;;4973549;28;20587;-60
2021/08/28 06:11:12;;;;;;;9.90;7.37;;;13.70;99.90;;;;;;4972998;28;20539;-59
2021/08/28 06:13:39;;;;;;;11.30;8.70;;;13.80;99.90;;;;;;4973073;28;20456;-60
2021/08/28 06:16:06;;;;;;;10.30;7.70;;;13.70;99.90;;;;;;4972659;28;20483;-60
2021/08/28 06:18:34;;;;;;;13.67;9.10;;;13.80;99.90;;;;;;4973258;28;20510;-60
2021/08/28 06:21:02;;;;;;;8.80;7.50;;;13.80;99.90;;;;;;4972803;28;20473;-60
2021/08/28 06:23:30;;;;;;;7.67;6.50;;;13.80;99.90;;;;;;4976505;28;20550;-60
2021/08/28 06:25:57;;;;;;;8.23;6.57;;;14.00;99.90;;;;;;4973042;28;20522;-61
2021/08/28 06:28:23;;;;;;;11.33;6.70;;;14.00;99.90;;;;;;4972643;28;20518;-60
2021/08/28 06:30:50;;;;;;;11.40;6.33;;;13.90;99.90;;;;;;4973181;28;20605;-59
2021/08/28 06:33:17;;;;;;;9.27;6.57;;;13.90;99.90;;;;;;4972898;28;20459;-60
2021/08/28 06:35:46;;;;;;;7.27;5.60;;;13.90;99.90;;;;;;4972403;28;20545;-60
2021/08/28 06:38:13;;;;;;;8.73;7.03;;;14.00;99.90;;;;;;4972713;28;20528;-59
2021/08/28 06:40:40;;;;;;;8.13;5.77;;;14.20;99.90;;;;;;4972479;28;20817;-59
2021/08/28 06:43:07;;;;;;;8.27;5.83;;;14.20;99.90;;;;;;4973774;28;20487;-59
2021/08/28 06:45:34;;;;;;;7.80;6.10;;;14.20;99.90;;;;;;4972832;28;20572;-60
2021/08/28 06:48:01;;;;;;;8.33;6.23;;;14.50;99.90;;;;;;4972814;28;21090;-59
2021/08/28 06:50:28;;;;;;;7.93;5.40;;;14.40;99.90;;;;;;4972297;28;20475;-60
2021/08/28 06:52:56;;;;;;;9.67;5.90;;;14.60;99.90;;;;;;4972778;28;20452;-59
2021/08/28 06:55:24;;;;;;;5.90;5.00;;;14.70;99.90;;;;;;4972488;28;20855;-60
2021/08/28 06:57:51;;;;;;;7.93;5.60;;;14.70;99.90;;;;;;4972507;28;20941;-60
2021/08/28 07:00:18;;;;;;;7.63;6.20;;;14.50;99.90;;;;;;4972362;28;20506;-60
2021/08/28 07:02:45;;;;;;;7.97;5.87;;;14.40;99.90;;;;;;4975045;28;20447;-60
2021/08/28 07:05:12;;;;;;;9.90;6.27;;;14.40;99.90;;;;;;4972207;28;21031;-60
2021/08/28 07:07:39;;;;;;;7.17;5.87;;;14.30;99.90;;;;;;4972474;28;20937;-60
2021/08/28 07:10:10;;;;;;;9.83;6.30;;;14.20;99.90;;;;;;4971107;28;20459;-60
2021/08/28 07:12:37;;;;;;;8.03;6.33;;;14.10;99.90;;;;;;4969706;28;20461;-60
2021/08/28 07:15:05;;;;;;;9.00;5.97;;;14.10;99.90;;;;;;4971944;28;21022;-60
2021/08/28 07:17:32;;;;;;;7.30;6.17;;;14.20;99.90;;;;;;4972307;28;20458;-60
2021/08/28 07:19:59;;;;;;;8.80;6.47;;;14.30;99.90;;;;;;4972266;28;20484;-60
2021/08/28 07:22:26;;;;;;;8.00;5.73;;;14.20;99.90;;;;;;4974860;28;20834;-60
2021/08/28 07:24:53;;;;;;;8.47;6.10;;;14.30;99.90;;;;;;4972569;28;20522;-60
2021/08/28 07:27:23;;;;;;;6.97;5.77;;;14.40;99.90;;;;;;4972229;28;20448;-60
2021/08/28 07:29:50;;;;;;;6.90;5.63;;;14.40;99.90;;;;;;4972261;28;20560;-61
2021/08/28 07:32:18;;;;;;;9.70;5.80;;;14.50;99.90;;;;;;4973052;28;20490;-60
2021/08/28 07:34:45;;;;;;;5.47;4.87;;;14.50;99.90;;;;;;4972205;28;20495;-60
2021/08/28 07:37:12;;;;;;;5.90;5.30;;;14.50;99.90;;;;;;4972271;28;20473;-60
2021/08/28 07:39:40;;;;;;;6.33;5.27;;;14.60;99.90;;;;;;4972091;28;20462;-60
2021/08/28 07:42:07;;;;;;;6.60;5.60;;;14.60;99.90;;;;;;4971801;28;20463;-60
2021/08/28 07:44:36;;;;;;;8.33;5.60;;;14.70;99.90;;;;;;4975548;28;20462;-60
2021/08/28 07:47:03;;;;;;;7.17;5.50;;;14.80;99.90;;;;;;4971518;28;20447;-60
2021/08/28 07:49:30;;;;;;;6.40;5.20;;;14.90;99.90;;;;;;4971127;28;20447;-60
2021/08/28 07:51:58;;;;;;;6.80;5.67;;;15.00;99.90;;;;;;4971067;28;20471;-61
2021/08/28 07:54:24;;;;;;;8.00;5.63;;;14.90;99.90;;;;;;4970467;28;20546;-60
2021/08/28 07:56:51;;;;;;;6.50;5.50;;;14.90;99.90;;;;;;4970948;28;20483;-60
2021/08/28 07:59:18;;;;;;;8.33;5.33;;;14.90;99.90;;;;;;4970795;28;21016;-60
2021/08/28 08:01:47;;;;;;;10.53;5.80;;;14.90;99.90;;;;;;4971209;28;20463;-59
2021/08/28 08:04:14;;;;;;;6.70;5.80;;;14.80;99.90;;;;;;4971415;28;20459;-60
2021/08/28 08:06:41;;;;;;;5.17;4.50;;;14.80;99.90;;;;;;4972776;28;20462;-60
2021/08/28 08:09:08;;;;;;;14.97;5.80;;;14.90;99.90;;;;;;4969896;28;20898;-59
2021/08/28 08:11:35;;;;;;;5.63;5.07;;;14.90;99.90;;;;;;4971276;28;20487;-60
2021/08/28 08:14:02;;;;;;;7.77;5.73;;;14.90;99.90;;;;;;4972561;28;20456;-59
2021/08/28 08:16:29;;;;;;;7.63;5.83;;;15.00;99.90;;;;;;4970770;28;20510;-60
2021/08/28 08:18:58;;;;;;;8.60;6.10;;;15.30;99.90;;;;;;4970691;28;20792;-59
2021/08/28 08:21:26;;;;;;;9.57;5.40;;;15.30;99.90;;;;;;4970940;28;20475;-57
2021/08/28 08:23:53;;;;;;;6.77;5.37;;;15.30;99.90;;;;;;4973339;28;21551;-58
2021/08/28 08:26:20;;;;;;;6.20;5.17;;;15.40;99.90;;;;;;4973561;28;20456;-58
2021/08/28 08:28:48;;;;;;;7.77;5.50;;;15.60;99.90;;;;;;4974406;28;20451;-58
2021/08/28 08:31:15;;;;;;;7.37;6.10;;;15.70;99.90;;;;;;4977260;28;20525;-58
2021/08/28 08:33:42;;;;;;;8.67;6.50;;;15.90;99.90;;;;;;4974328;28;20501;-58
2021/08/28 08:36:10;;;;;;;8.17;6.47;;;16.00;99.90;;;;;;4973750;28;20538;-58
2021/08/28 08:38:37;;;;;;;6.83;5.73;;;16.30;99.90;;;;;;4974173;28;20455;-59
2021/08/28 08:41:07;;;;;;;8.20;5.70;;;16.40;99.90;;;;;;4974045;28;20517;-59
2021/08/28 08:43:35;;;;;;;6.43;5.07;;;16.60;99.90;;;;;;4973052;28;20467;-60
2021/08/28 08:46:02;;;;;;;6.30;5.23;;;16.70;99.90;;;;;;4975999;28;20950;-60
2021/08/28 08:48:32;;;;;;;5.53;5.03;;;16.70;99.90;;;;;;4974715;28;20455;-60
2021/08/28 08:50:59;;;;;;;7.83;5.40;;;16.50;99.90;;;;;;4973471;28;20815;-59
2021/08/28 08:53:30;;;;;;;6.40;5.70;;;16.50;99.90;;;;;;4973768;28;20877;-60
2021/08/28 08:55:58;;;;;;;6.70;5.67;;;16.40;99.90;;;;;;4970775;28;20495;-60
2021/08/28 08:58:26;;;;;;;8.00;5.23;;;16.50;99.90;;;;;;4967746;28;20472;-59
2021/08/28 09:00:53;;;;;;;5.83;5.20;;;16.60;99.90;;;;;;4973289;28;20904;-60
2021/08/28 09:03:20;;;;;;;5.97;5.23;;;16.80;99.90;;;;;;4973613;28;20452;-59
2021/08/28 09:05:48;;;;;;;7.67;4.97;;;16.90;99.90;;;;;;4974005;28;20522;-60
2021/08/28 09:08:15;;;;;;;8.53;5.10;;;17.00;99.90;;;;;;4973231;28;20455;-60
2021/08/28 09:10:43;;;;;;;6.13;5.37;;;17.20;99.90;;;;;;4970278;28;20754;-59
2021/08/28 09:13:15;;;;;;;6.37;4.17;;;17.20;99.90;;;;;;4973167;28;20502;-60
2021/08/28 09:15:48;;;;;;;8.13;5.17;;;17.10;99.90;;;;;;4970236;28;20487;-60
2021/08/28 09:18:15;;;;;;;7.73;4.90;;;17.20;99.90;;;;;;4969147;28;20482;-60
2021/08/28 09:20:43;;;;;;;5.00;4.50;;;17.30;99.90;;;;;;4971455;28;20475;-60
2021/08/28 09:23:14;;;;;;;4.57;4.17;;;17.40;99.90;;;;;;4970827;28;20542;-61
2021/08/28 09:25:44;;;;;;;5.53;3.83;;;17.30;99.90;;;;;;4971669;28;20455;-60
2021/08/28 09:28:12;;;;;;;5.50;4.67;;;17.40;99.90;;;;;;4970603;28;20459;-59
2021/08/28 09:30:42;;;;;;;5.77;4.70;;;17.20;99.90;;;;;;4972259;28;20481;-59
2021/08/28 09:33:12;;;;;;;6.10;4.13;;;17.30;99.90;;;;;;4971453;28;21033;-59
2021/08/28 09:35:42;;;;;;;6.60;4.30;;;17.40;99.90;;;;;;4972188;28;20534;-60
2021/08/28 09:38:10;;;;;;;4.37;3.50;;;17.30;99.90;;;;;;4972078;28;20443;-58
2021/08/28 09:40:40;;;;;;;4.40;3.57;;;17.50;99.90;;;;;;4971642;28;20483;-60
2021/08/28 09:43:12;;;;;;;4.90;3.70;;;17.70;99.90;;;;;;4971841;28;20826;-60
2021/08/28 09:45:39;;;;;;;3.67;3.37;;;18.00;99.90;;;;;;4971138;28;20458;-58
2021/08/28 09:48:08;;;;;;;4.50;4.10;;;18.50;99.90;;;;;;4972272;28;20526;-59
2021/08/28 09:50:38;;;;;;;3.73;2.93;;;19.10;99.90;;;;;;4971764;28;20553;-60
2021/08/28 09:53:07;;;;;;;4.20;3.03;;;19.50;99.90;;;;;;4971150;28;20447;-60
2021/08/28 09:55:36;;;;;;;3.57;3.00;;;19.80;99.90;;;;;;4967853;28;20865;-58
2021/08/28 09:58:04;;;;;;;3.97;3.00;;;19.80;99.90;;;;;;4971568;28;20455;-59
2021/08/28 10:00:34;;;;;;;3.70;3.40;;;19.70;99.90;;;;;;4971153;28;20468;-60
2021/08/28 10:03:04;;;;;;;5.20;2.70;;;19.50;99.90;;;;;;4971515;28;20930;-59
2021/08/28 10:05:33;;;;;;;3.00;2.67;;;19.20;99.90;;;;;;4971576;28;20490;-60
2021/08/28 10:08:02;;;;;;;3.73;3.00;;;18.70;99.90;;;;;;4969060;28;20470;-60
2021/08/28 10:10:32;;;;;;;3.50;3.20;;;18.30;99.90;;;;;;4968632;28;20522;-59
2021/08/28 10:13:02;;;;;;;3.10;2.67;;;18.50;99.90;;;;;;4971014;28;20467;-60
2021/08/28 10:15:30;;;;;;;4.10;2.77;;;18.50;99.90;;;;;;4970371;28;20849;-60
2021/08/28 10:17:59;;;;;;;2.70;2.50;;;18.40;99.90;;;;;;4970965;28;20509;-60
2021/08/28 10:20:28;;;;;;;3.50;2.80;;;18.50;99.90;;;;;;4971416;28;20487;-59
2021/08/28 10:22:57;;;;;;;2.83;2.63;;;18.50;99.90;;;;;;4969031;28;20487;-59
2021/08/28 10:25:26;;;;;;;2.63;2.43;;;18.50;99.90;;;;;;4970120;28;20977;-59
2021/08/28 10:27:54;;;;;;;3.17;2.43;;;18.90;99.90;;;;;;4964886;28;20526;-59
2021/08/28 10:30:22;;;;;;;2.60;2.40;;;19.60;99.90;;;;;;4970675;28;20514;-58
2021/08/28 10:32:50;;;;;;;3.63;2.57;;;20.10;99.90;;;;;;4970540;28;20466;-58
2021/08/28 10:35:20;;;;;;;4.30;2.30;;;20.60;99.90;;;;;;4969131;28;20475;-60
2021/08/28 10:37:47;;;;;;;4.20;2.50;;;20.70;99.90;;;;;;4967539;28;20915;-59
2021/08/28 10:40:19;;;;;;;2.70;2.43;;;20.40;99.90;;;;;;4971190;28;20948;-59
2021/08/28 10:42:47;;;;;;;3.13;2.83;;;20.10;99.90;;;;;;4967947;28;20463;-59
2021/08/28 10:45:14;;;;;;;2.97;2.47;;;19.90;99.90;;;;;;4961790;28;20456;-59
2021/08/28 10:47:45;;;;;;;2.70;2.50;;;19.60;99.90;;;;;;4959102;28;20460;-58
2021/08/28 10:50:14;;;;;;;2.50;2.27;;;19.30;99.90;;;;;;4964246;28;20539;-58
2021/08/28 10:52:50;;;;;;;1.30;1.20;;;18.20;99.90;;;;;;4969828;28;20463;-58
2021/08/28 10:55:17;;;;;;;2.00;1.10;;;17.00;99.90;;;;;;4971818;28;20459;-58
2021/08/28 10:57:44;;;;;;;1.60;1.50;;;16.70;99.90;;;;;;4971911;28;20495;-60
2021/08/28 11:00:14;;;;;;;3.33;1.10;;;16.40;99.90;;;;;;4971123;28;20518;-58
2021/08/28 11:02:50;;;;;;;1.23;1.13;;;15.90;99.90;;;;;;4964542;28;20472;-58
2021/08/28 11:05:19;;;;;;;1.40;1.30;;;15.20;99.90;;;;;;4964254;28;20467;-59
2021/08/28 11:07:48;;;;;;;2.43;1.43;;;14.50;99.90;;;;;;4960923;28;20463;-58
2021/08/28 11:10:17;;;;;;;2.07;1.60;;;14.30;99.90;;;;;;4961330;28;20537;-58
2021/08/28 11:12:49;;;;;;;2.13;1.13;;;14.10;99.90;;;;;;4960563;28;21042;-59
2021/08/28 11:15:44;;;;;;;2.60;1.47;;;14.20;99.90;;;;;;4963323;28;20470;-60
2021/08/28 11:18:36;;;;;;;2.00;1.80;;;14.40;99.90;;;;;;4961204;28;20527;-59
2021/08/28 11:21:07;;;;;;;6.73;1.50;;;14.70;99.90;;;;;;4961322;28;20501;-59
2021/08/28 11:23:41;;;;;;;2.10;1.43;;;15.00;99.90;;;;;;4963276;28;20463;-59
2021/08/28 11:26:08;;;;;;;1.43;1.10;;;15.20;99.90;;;;;;4961937;28;20534;-57
2021/08/28 11:28:38;;;;;;;1.70;0.90;;;15.10;99.90;;;;;;4964534;28;20480;-59
2021/08/28 11:31:06;;;;;;;1.63;1.33;;;15.00;99.90;;;;;;4969018;28;20570;-58
2021/08/28 11:33:34;;;;;;;1.20;1.10;;;14.90;99.90;;;;;;4968459;28;20471;-59
2021/08/28 11:36:05;;;;;;;2.60;1.30;;;14.90;99.90;;;;;;4948665;28;20463;-59
2021/08/28 11:38:46;;;;;;;1.97;1.40;;;15.20;99.90;;;;;;4950103;28;20463;-59
2021/08/28 11:41:14;;;;;;;1.40;1.30;;;15.30;99.90;;;;;;4959820;28;20491;-60
2021/08/28 11:43:43;;;;;;;1.23;1.13;;;15.40;99.90;;;;;;4961859;28;20506;-60
2021/08/28 11:46:12;;;;;;;1.07;0.93;;;15.50;99.90;;;;;;4960652;28;20460;-58
2021/08/28 11:48:42;;;;;;;2.50;1.20;;;15.50;99.90;;;;;;4961624;28;21024;-59
2021/08/28 11:51:13;;;;;;;1.70;1.20;;;16.00;99.90;;;;;;4962432;28;20483;-59
2021/08/28 11:53:42;;;;;;;1.40;1.30;;;16.50;99.90;;;;;;4963085;28;20463;-58
2021/08/28 11:56:13;;;;;;;1.40;1.20;;;16.70;99.90;;;;;;4965345;28;20491;-59
2021/08/28 11:58:55;;;;;;;1.83;1.50;;;17.00;99.90;;;;;;4966801;28;20467;-59
2021/08/28 12:01:34;;;;;;;1.50;1.40;;;17.20;99.90;;;;;;4963785;28;20487;-59
2021/08/28 12:04:02;;;;;;;1.40;1.30;;;17.20;99.90;;;;;;4966355;28;20458;-58
2021/08/28 12:06:30;;;;;;;1.30;1.20;;;17.30;99.90;;;;;;4965353;28;20579;-58
2021/08/28 12:08:59;;;;;;;1.30;1.20;;;17.60;99.90;;;;;;4965546;28;20467;-60
2021/08/28 12:11:27;;;;;;;1.30;1.20;;;17.80;99.90;;;;;;4966034;28;20482;-58
2021/08/28 12:13:55;;;;;;;2.03;1.03;;;17.70;99.90;;;;;;4963690;28;20466;-58
2021/08/28 12:16:24;;;;;;;1.20;1.10;;;17.90;99.90;;;;;;4966389;28;20466;-59
2021/08/28 12:19:07;;;;;;;1.27;1.17;;;18.40;99.90;;;;;;4965471;28;20467;-59
2021/08/28 12:21:36;;;;;;;1.40;1.30;;;19.00;99.90;;;;;;4967228;28;21624;-59
2021/08/28 12:24:19;;;;;;;1.30;1.10;;;18.90;99.90;;;;;;4964992;28;20977;-59
2021/08/28 12:26:52;;;;;;;2.10;1.50;;;18.80;99.90;;;;;;4969496;28;20462;-59
2021/08/28 12:29:27;;;;;;;1.90;1.57;;;18.90;99.90;;;;;;4964481;28;20479;-60
2021/08/28 12:31:59;;;;;;;3.33;1.50;;;19.00;99.90;;;;;;4974182;28;20478;-59
2021/08/28 12:34:28;;;;;;;2.03;1.40;;;19.00;99.90;;;;;;4968521;28;20463;-59
2021/08/28 12:36:56;;;;;;;2.07;1.77;;;18.80;99.90;;;;;;4967419;28;22544;-60
2021/08/28 12:39:24;;;;;;;1.40;1.30;;;18.90;99.90;;;;;;4969164;28;20514;-60
2021/08/28 12:41:52;;;;;;;1.67;1.30;;;18.70;99.90;;;;;;4967121;28;20926;-59
2021/08/28 12:44:19;;;;;;;1.80;1.50;;;18.50;99.90;;;;;;4967583;28;20467;-61
2021/08/28 12:46:48;;;;;;;2.60;1.60;;;18.40;99.90;;;;;;4968567;28;21702;-61
2021/08/28 12:49:19;;;;;;;2.23;1.70;;;18.40;99.90;;;;;;4965282;28;21020;-59
2021/08/28 12:51:58;;;;;;;1.50;1.40;;;18.40;99.90;;;;;;4968283;28;20491;-60
2021/08/28 12:54:30;;;;;;;1.70;1.60;;;18.40;99.90;;;;;;4966642;28;20968;-59
2021/08/28 12:57:02;;;;;;;1.90;1.80;;;17.90;99.90;;;;;;4965546;28;20479;-59
2021/08/28 12:59:30;;;;;;;2.83;1.93;;;18.00;99.90;;;;;;4965254;28;20550;-59